Time;durP1;ratioP1;P1;durP2;ratioP2;P2;SDS_P1;SDS_P2;PMS_P1;PMS_P2;Temp;Humidity;BMP_temperature;BMP_pressure;BME280_temperature;BME280_humidity;BME280_pressure;Samples;Min_cycle;Max_cycle;Signal;HPM_P1;HPM_P2
2021/12/05 00:19:04;;;;;;;5.78;1.27;;;;;;;;;;5093222;28;20036;-63
2021/12/05 00:24:04;;;;;;;8.38;1.40;;;;;;;;;;5093455;28;20120;-63
2021/12/05 00:26:31;;;;;;;6.82;1.35;;;;;;;;;;5092816;28;20024;-63
2021/12/05 00:29:26;;;;;;;5.32;1.15;;;;;;;;;;5074471;28;20032;-63
2021/12/05 00:42:54;;;;;;;8.45;1.50;;;;;;;;;;5083757;28;20465;-63
2021/12/05 00:51:10;;;;;;;7.43;1.40;;;;;;;;;;5072688;28;20047;-63
2021/12/05 01:16:27;;;;;;;10.90;2.25;;;;;;;;;;5058042;28;20082;-63
2021/12/05 01:18:54;;;;;;;10.40;2.15;;;;;;;;;;5058531;28;20558;-63
2021/12/05 01:21:23;;;;;;;11.93;1.88;;;;;;;;;;5076544;28;20033;-63
2021/12/05 01:24:04;;;;;;;15.98;2.35;;;;;;;;;;5058505;28;20036;-63
2021/12/05 01:26:56;;;;;;;14.18;2.30;;;;;;;;;;5076303;28;20040;-63
2021/12/05 01:32:26;;;;;;;14.65;2.65;;;;;;;;;;5077498;28;20123;-63
2021/12/05 01:37:55;;;;;;;9.90;2.80;;;;;;;;;;5095877;28;19935;-63
2021/12/05 01:46:22;;;;;;;11.17;2.00;;;;;;;;;;5069717;28;20047;-63
2021/12/05 02:32:17;;;;;;;14.38;2.85;;;;;;;;;;5032992;28;20142;-63
2021/12/05 02:37:37;;;;;;;16.15;2.35;;;;;;;;;;5016130;28;20052;-63
2021/12/05 02:43:13;;;;;;;21.55;2.30;;;;;;;;;;5052291;28;20063;-63
2021/12/05 02:45:39;;;;;;;15.77;2.92;;;;;;;;;;5052227;28;20047;-63
2021/12/05 02:48:09;;;;;;;11.25;2.72;;;;;;;;;;5048986;28;20033;-63
2021/12/05 02:50:36;;;;;;;15.48;2.80;;;;;;;;;;5070076;28;20048;-63
2021/12/05 02:53:18;;;;;;;11.60;2.85;;;;;;;;;;5056649;28;20032;-63
2021/12/05 02:55:46;;;;;;;17.92;3.05;;;;;;;;;;5057092;28;20064;-63
2021/12/05 02:58:21;;;;;;;13.10;1.88;;;;;;;;;;5056204;28;20499;-63
2021/12/05 03:03:19;;;;;;;11.43;2.20;;;;;;;;;;5076438;28;20445;-63
2021/12/05 03:05:48;;;;;;;11.35;1.70;;;;;;;;;;5076748;28;20028;-63
2021/12/05 03:08:15;;;;;;;9.18;2.33;;;;;;;;;;5094517;28;20024;-63
2021/12/05 03:10:41;;;;;;;13.23;1.90;;;;;;;;;;5094681;28;20039;-63
2021/12/05 03:13:07;;;;;;;9.48;2.50;;;;;;;;;;5094386;28;20067;-63
2021/12/05 03:15:34;;;;;;;13.45;2.38;;;;;;;;;;5076490;28;20036;-63
2021/12/05 03:18:01;;;;;;;15.20;2.40;;;;;;;;;;5076398;28;20122;-63
2021/12/05 03:20:28;;;;;;;19.70;2.53;;;;;;;;;;5094163;28;20036;-63
2021/12/05 03:22:55;;;;;;;8.63;1.38;;;;;;;;;;5076090;28;20032;-63
2021/12/05 03:25:22;;;;;;;10.55;1.88;;;;;;;;;;5075741;28;20555;-63
2021/12/05 03:27:48;;;;;;;10.57;1.70;;;;;;;;;;5075996;28;20115;-63
2021/12/05 03:30:19;;;;;;;12.43;1.80;;;;;;;;;;5075724;28;20028;-63
2021/12/05 03:32:48;;;;;;;12.73;2.60;;;;;;;;;;5076274;28;20033;-63
2021/12/05 03:35:15;;;;;;;12.70;2.30;;;;;;;;;;5075071;28;20028;-63
2021/12/05 03:37:42;;;;;;;8.93;2.38;;;;;;;;;;5083679;28;20037;-63
2021/12/05 03:40:09;;;;;;;13.70;2.55;;;;;;;;;;5055763;28;20075;-63
2021/12/05 03:42:36;;;;;;;13.30;2.03;;;;;;;;;;5055437;28;20423;-63
2021/12/05 03:45:09;;;;;;;16.48;3.47;;;;;;;;;;5073468;28;20024;-63
2021/12/05 03:47:36;;;;;;;13.35;2.45;;;;;;;;;;5073769;28;20491;-63
2021/12/05 03:50:08;;;;;;;11.65;2.40;;;;;;;;;;5055598;28;20020;-63
2021/12/05 03:52:36;;;;;;;12.20;1.98;;;;;;;;;;5064139;28;20024;-63
2021/12/05 03:55:03;;;;;;;26.75;3.45;;;;;;;;;;5075132;28;20028;-63
2021/12/05 03:57:30;;;;;;;17.90;4.65;;;;;;;;;;5075635;28;20085;-63
2021/12/05 03:59:57;;;;;;;11.93;2.03;;;;;;;;;;5075275;28;20020;-63
2021/12/05 04:02:23;;;;;;;15.70;2.22;;;;;;;;;;5075531;28;20037;-63
2021/12/05 04:04:50;;;;;;;12.88;2.10;;;;;;;;;;5093605;28;20020;-63
2021/12/05 04:07:17;;;;;;;6.85;2.05;;;;;;;;;;5091224;28;20032;-63
2021/12/05 04:09:44;;;;;;;10.27;2.17;;;;;;;;;;5061181;28;20032;-63
2021/12/05 04:12:11;;;;;;;8.38;1.90;;;;;;;;;;5075129;28;20060;-63
2021/12/05 04:14:41;;;;;;;20.58;4.70;;;;;;;;;;5075285;28;20032;-63
2021/12/05 04:17:10;;;;;;;13.73;2.20;;;;;;;;;;5074776;28;20032;-63
2021/12/05 04:19:37;;;;;;;13.57;2.53;;;;;;;;;;5075119;28;20016;-63
2021/12/05 04:22:04;;;;;;;20.10;2.75;;;;;;;;;;5075154;28;20028;-63
2021/12/05 04:24:33;;;;;;;18.02;2.97;;;;;;;;;;5069738;28;20082;-63
2021/12/05 04:27:00;;;;;;;12.57;2.08;;;;;;;;;;5055317;28;20038;-63
2021/12/05 04:29:27;;;;;;;12.15;2.03;;;;;;;;;;5054866;28;20023;-63
2021/12/05 04:31:53;;;;;;;14.32;2.33;;;;;;;;;;5054847;28;20031;-63
2021/12/05 04:34:19;;;;;;;6.22;1.48;;;;;;;;;;5054896;28;20035;-63
2021/12/05 04:36:46;;;;;;;14.88;2.05;;;;;;;;;;5054609;28;20390;-63
2021/12/05 04:39:13;;;;;;;7.63;2.00;;;;;;;;;;5054604;28;20037;-63
2021/12/05 04:41:43;;;;;;;12.70;2.88;;;;;;;;;;5072653;28;20067;-63
2021/12/05 04:44:10;;;;;;;20.17;3.40;;;;;;;;;;5092886;28;20036;-63
2021/12/05 04:46:36;;;;;;;11.35;1.48;;;;;;;;;;5074316;28;20027;-63
2021/12/05 04:49:05;;;;;;;12.50;2.50;;;;;;;;;;5092483;28;20091;-63
2021/12/05 04:51:34;;;;;;;15.32;3.15;;;;;;;;;;5074276;28;20574;-63
2021/12/05 04:54:00;;;;;;;19.52;2.70;;;;;;;;;;5074114;28;20047;-63
2021/12/05 04:56:27;;;;;;;9.18;2.20;;;;;;;;;;5059640;28;20036;-63
2021/12/05 04:58:54;;;;;;;12.43;2.88;;;;;;;;;;5037803;28;20021;-63
2021/12/05 05:01:25;;;;;;;18.60;2.50;;;;;;;;;;5054347;28;20127;-63
2021/12/05 05:03:51;;;;;;;13.70;2.15;;;;;;;;;;5072605;28;20436;-63
2021/12/05 05:06:19;;;;;;;9.00;1.70;;;;;;;;;;5072260;28;20085;-63
2021/12/05 05:08:47;;;;;;;8.07;3.15;;;;;;;;;;5088761;28;20032;-63
2021/12/05 05:11:14;;;;;;;15.00;2.55;;;;;;;;;;5091995;28;20028;-63
2021/12/05 05:13:41;;;;;;;13.55;2.70;;;;;;;;;;5092574;28;20131;-63
2021/12/05 05:16:08;;;;;;;16.83;2.80;;;;;;;;;;5092615;28;20036;-63
2021/12/05 05:18:44;;;;;;;20.85;3.47;;;;;;;;;;5092579;28;20047;-63
2021/12/05 05:21:33;;;;;;;18.75;2.40;;;;;;;;;;5092313;28;20036;-63
2021/12/05 05:29:56;;;;;;;11.55;2.75;;;;;;;;;;5072338;28;20032;-63
2021/12/05 05:43:33;;;;;;;14.85;3.22;;;;;;;;;;5071770;28;20078;-63
2021/12/05 05:46:22;;;;;;;12.50;3.28;;;;;;;;;;5072027;28;20051;-63
2021/12/05 05:48:58;;;;;;;8.90;2.28;;;;;;;;;;5072100;28;20039;-63
2021/12/05 05:51:24;;;;;;;13.52;2.33;;;;;;;;;;5071429;28;20040;-63
2021/12/05 05:53:51;;;;;;;11.63;1.98;;;;;;;;;;5070811;28;20036;-63
2021/12/05 05:56:22;;;;;;;18.80;4.18;;;;;;;;;;5071512;28;20031;-63
2021/12/05 05:58:52;;;;;;;16.35;2.75;;;;;;;;;;5073141;28;20047;-63
2021/12/05 06:01:43;;;;;;;4.95;1.73;;;;;;;;;;5075409;28;20032;-63
2021/12/05 06:04:06;;;;;;;13.27;2.40;;;;;;;;;;5075556;28;20032;-63
2021/12/05 06:06:32;;;;;;;16.63;2.55;;;;;;;;;;5075186;28;20107;-63
2021/12/05 06:08:59;;;;;;;9.90;3.00;;;;;;;;;;5075747;28;20033;-63
2021/12/05 06:11:26;;;;;;;21.17;2.80;;;;;;;;;;5074890;28;20029;-63
2021/12/05 06:13:52;;;;;;;16.88;2.42;;;;;;;;;;5074206;28;20588;-63
2021/12/05 06:16:19;;;;;;;22.95;2.65;;;;;;;;;;5075270;28;20435;-63
2021/12/05 06:18:46;;;;;;;12.15;2.42;;;;;;;;;;5075527;28;20036;-63
2021/12/05 06:21:12;;;;;;;22.13;4.63;;;;;;;;;;5075181;28;20550;-63
2021/12/05 06:23:39;;;;;;;16.13;2.55;;;;;;;;;;5075116;28;20028;-63
2021/12/05 06:26:08;;;;;;;13.23;2.03;;;;;;;;;;5075040;28;20046;-63
2021/12/05 06:28:45;;;;;;;15.25;2.38;;;;;;;;;;5074870;28;20033;-63
2021/12/05 06:31:47;;;;;;;12.07;2.05;;;;;;;;;;5075351;28;20487;-63
2021/12/05 06:47:36;;;;;;;11.40;2.30;;;;;;;;;;5086999;28;20052;-63
2021/12/05 06:50:02;;;;;;;11.07;2.15;;;;;;;;;;5088979;28;20031;-63
2021/12/05 06:52:28;;;;;;;10.75;2.10;;;;;;;;;;5086345;28;20028;-63
2021/12/05 06:54:57;;;;;;;21.05;3.20;;;;;;;;;;5085958;28;20036;-64
2021/12/05 06:57:23;;;;;;;22.40;2.60;;;;;;;;;;5088546;28;20073;-64
2021/12/05 06:59:49;;;;;;;13.02;2.38;;;;;;;;;;5085733;28;20791;-64
2021/12/05 07:02:17;;;;;;;18.02;2.55;;;;;;;;;;5091413;28;20487;-64
2021/12/05 07:07:21;;;;;;;18.02;2.20;;;;;;;;;;5087632;28;20032;-64
2021/12/05 07:09:48;;;;;;;19.75;2.80;;;;;;;;;;5084567;28;20044;-65
2021/12/05 07:15:09;;;;;;;9.75;2.13;;;;;;;;;;5085021;28;20021;-69
2021/12/05 07:25:30;;;;;;;10.88;2.50;;;;;;;;;;5085298;28;20020;-67
2021/12/05 07:41:53;;;;;;;16.77;2.70;;;;;;;;;;5088292;28;20040;-64
2021/12/05 07:44:19;;;;;;;10.18;2.72;;;;;;;;;;5089462;28;20047;-64
2021/12/05 07:46:46;;;;;;;14.88;2.75;;;;;;;;;;5085534;28;20410;-65
2021/12/05 07:49:13;;;;;;;7.95;1.98;;;;;;;;;;5088548;28;20051;-64
2021/12/05 07:51:44;;;;;;;13.25;2.17;;;;;;;;;;5084428;28;20131;-64
2021/12/05 07:54:30;;;;;;;12.82;1.98;;;;;;;;;;5084829;28;20399;-64
2021/12/05 07:59:57;;;;;;;18.00;3.47;;;;;;;;;;5082096;28;20032;-73
2021/12/05 08:16:12;;;;;;;5.50;2.05;;;;;;;;;;5079433;28;20105;-64
2021/12/05 08:18:39;;;;;;;10.68;2.83;;;;;;;;;;5089869;28;20040;-64
2021/12/05 08:21:06;;;;;;;13.02;2.10;;;;;;;;;;5084264;28;20103;-65
2021/12/05 08:23:32;;;;;;;16.25;3.03;;;;;;;;;;5083747;28;20039;-65
2021/12/05 08:26:08;;;;;;;13.30;2.45;;;;;;;;;;5084841;28;20024;-64
2021/12/05 08:42:30;;;;;;;15.98;2.22;;;;;;;;;;5085191;28;20020;-63
2021/12/05 09:26:30;;;;;;;22.02;2.78;;;;;;;;;;5088680;28;20103;-64
2021/12/05 10:14:49;;;;;;;15.05;3.42;;;;;;;;;;5085401;28;20107;-64
2021/12/05 10:33:52;;;;;;;15.43;3.40;;;;;;;;;;5086666;28;20042;-64
2021/12/05 10:36:23;;;;;;;14.30;2.55;;;;;;;;;;5088389;28;20040;-64
2021/12/05 10:38:53;;;;;;;14.65;2.45;;;;;;;;;;5086193;28;20801;-64
2021/12/05 10:44:02;;;;;;;17.88;2.53;;;;;;;;;;5084543;28;20487;-64
2021/12/05 10:46:31;;;;;;;10.95;3.25;;;;;;;;;;5089241;28;20036;-64
2021/12/05 10:49:03;;;;;;;16.42;2.70;;;;;;;;;;5084375;28;20016;-64
2021/12/05 10:51:31;;;;;;;14.77;3.08;;;;;;;;;;5091656;28;20574;-64
2021/12/05 10:54:05;;;;;;;13.95;2.47;;;;;;;;;;5090039;28;20173;-64
2021/12/05 10:56:33;;;;;;;19.75;2.92;;;;;;;;;;5093392;28;20036;-64
2021/12/05 10:59:01;;;;;;;12.82;2.38;;;;;;;;;;5080410;28;20028;-64
2021/12/05 11:01:35;;;;;;;15.57;2.97;;;;;;;;;;5090638;28;20078;-64
2021/12/05 11:04:21;;;;;;;12.73;3.00;;;;;;;;;;5107462;28;20140;-64
2021/12/05 11:06:52;;;;;;;22.90;3.35;;;;;;;;;;5091783;28;20035;-64
2021/12/05 11:09:24;;;;;;;16.10;3.45;;;;;;;;;;5086046;28;20055;-64
2021/12/05 11:11:52;;;;;;;16.02;3.13;;;;;;;;;;5082451;28;20063;-64
2021/12/05 11:14:21;;;;;;;17.95;2.78;;;;;;;;;;5083395;28;20035;-64
2021/12/05 11:16:47;;;;;;;20.10;3.15;;;;;;;;;;5083938;28;20110;-64
2021/12/05 11:19:16;;;;;;;16.20;3.88;;;;;;;;;;5090266;28;20074;-64
2021/12/05 11:21:50;;;;;;;19.05;4.30;;;;;;;;;;5084726;28;20059;-63
2021/12/05 11:24:22;;;;;;;21.00;3.90;;;;;;;;;;5084519;28;20032;-62
2021/12/05 11:27:02;;;;;;;17.10;4.30;;;;;;;;;;5085618;28;20068;-62
2021/12/05 11:29:44;;;;;;;19.20;2.40;;;;;;;;;;5086026;28;20126;-62
2021/12/05 11:32:11;;;;;;;20.55;3.70;;;;;;;;;;5089503;28;20032;-62
2021/12/05 11:34:37;;;;;;;20.67;3.45;;;;;;;;;;5085303;28;20020;-62
2021/12/05 11:37:03;;;;;;;20.33;4.15;;;;;;;;;;5091262;28;20117;-62
2021/12/05 11:39:30;;;;;;;23.23;4.60;;;;;;;;;;5086482;28;20431;-62
2021/12/05 11:41:56;;;;;;;17.30;4.13;;;;;;;;;;5087214;28;20028;-63
2021/12/05 11:44:23;;;;;;;14.65;4.22;;;;;;;;;;5086738;28;20118;-63
2021/12/05 11:46:50;;;;;;;15.10;3.70;;;;;;;;;;5086977;28;20028;-62
2021/12/05 11:49:21;;;;;;;31.73;7.75;;;;;;;;;;5084454;28;20021;-61
2021/12/05 11:51:47;;;;;;;15.52;3.67;;;;;;;;;;5086955;28;20039;-63
2021/12/05 11:54:28;;;;;;;26.08;4.55;;;;;;;;;;5088158;28;20024;-62
2021/12/05 11:56:59;;;;;;;15.63;3.17;;;;;;;;;;5088558;28;20558;-63
2021/12/05 11:59:41;;;;;;;12.32;3.35;;;;;;;;;;5088680;28;20397;-61
2021/12/05 12:02:15;;;;;;;17.00;3.38;;;;;;;;;;5089083;28;20046;-62
2021/12/05 12:04:44;;;;;;;20.27;4.15;;;;;;;;;;5088416;28;20503;-62
2021/12/05 12:07:16;;;;;;;10.30;3.00;;;;;;;;;;5095151;28;20023;-62
2021/12/05 12:09:43;;;;;;;21.53;7.13;;;;;;;;;;5089521;28;20025;-63
2021/12/05 12:12:09;;;;;;;15.02;3.10;;;;;;;;;;5088150;28;20247;-63
2021/12/05 12:14:35;;;;;;;17.83;4.20;;;;;;;;;;5085535;28;20039;-63
2021/12/05 12:17:04;;;;;;;22.35;6.63;;;;;;;;;;5085476;28;20035;-62
2021/12/05 12:19:31;;;;;;;25.02;5.70;;;;;;;;;;5087585;28;20032;-62
2021/12/05 12:22:00;;;;;;;23.10;4.38;;;;;;;;;;5084490;28;20136;-63
2021/12/05 12:24:26;;;;;;;14.32;3.20;;;;;;;;;;5085213;28;20032;-63
2021/12/05 12:26:53;;;;;;;22.15;4.00;;;;;;;;;;5089289;28;20020;-62
2021/12/05 12:29:20;;;;;;;19.88;4.32;;;;;;;;;;5085604;28;20020;-63
2021/12/05 12:31:47;;;;;;;20.10;5.50;;;;;;;;;;5087847;28;20030;-63
2021/12/05 12:34:16;;;;;;;36.13;10.00;;;;;;;;;;5089461;28;20112;-63
2021/12/05 12:36:50;;;;;;;36.83;7.80;;;;;;;;;;5089894;28;20556;-63
2021/12/05 12:39:16;;;;;;;21.90;4.97;;;;;;;;;;5072140;28;20031;-63
2021/12/05 12:41:43;;;;;;;14.48;3.80;;;;;;;;;;5086364;28;20070;-64
2021/12/05 12:44:09;;;;;;;17.20;3.15;;;;;;;;;;5086251;28;20131;-64
2021/12/05 12:46:38;;;;;;;27.42;6.53;;;;;;;;;;5085792;28;20028;-63
2021/12/05 12:49:17;;;;;;;15.27;3.20;;;;;;;;;;5085979;28;20107;-63
2021/12/05 12:51:43;;;;;;;19.80;3.58;;;;;;;;;;5088196;28;20028;-63
2021/12/05 12:54:29;;;;;;;18.88;3.15;;;;;;;;;;5088978;28;20032;-63
2021/12/05 12:57:04;;;;;;;10.48;2.50;;;;;;;;;;5089764;28;20028;-63
2021/12/05 12:59:32;;;;;;;12.07;2.88;;;;;;;;;;5089159;28;20456;-64
2021/12/05 13:02:29;;;;;;;13.05;2.60;;;;;;;;;;5088926;28;20036;-63
2021/12/05 13:12:45;;;;;;;8.43;2.70;;;;;;;;;;5089652;28;20028;-63
2021/12/05 13:15:16;;;;;;;14.68;3.40;;;;;;;;;;5085446;28;21369;-63
2021/12/05 13:17:43;;;;;;;16.55;3.50;;;;;;;;;;5087503;28;20043;-63
2021/12/05 13:20:11;;;;;;;18.42;3.78;;;;;;;;;;5078656;28;20028;-62
2021/12/05 13:22:55;;;;;;;20.95;3.40;;;;;;;;;;5082553;28;20383;-63
2021/12/05 13:25:22;;;;;;;17.35;4.20;;;;;;;;;;5089239;28;20063;-62
2021/12/05 13:27:48;;;;;;;19.92;3.70;;;;;;;;;;5089665;28;20020;-62
2021/12/05 13:30:28;;;;;;;27.30;4.20;;;;;;;;;;5089578;28;20024;-62
2021/12/05 13:33:14;;;;;;;23.55;3.75;;;;;;;;;;5089754;28;20434;-62
2021/12/05 13:35:40;;;;;;;19.92;3.60;;;;;;;;;;5085830;28;20059;-62
2021/12/05 13:38:07;;;;;;;17.10;4.15;;;;;;;;;;5086780;28;20114;-62
2021/12/05 13:40:34;;;;;;;28.63;3.58;;;;;;;;;;5088480;28;20020;-62
2021/12/05 13:43:05;;;;;;;22.17;3.63;;;;;;;;;;5089283;28;20024;-62
2021/12/05 13:45:32;;;;;;;14.82;3.50;;;;;;;;;;5082487;28;20503;-62
2021/12/05 13:48:00;;;;;;;20.58;4.20;;;;;;;;;;5085808;28;20069;-62
2021/12/05 13:50:28;;;;;;;22.27;5.47;;;;;;;;;;5085896;28;20032;-62
2021/12/05 13:53:00;;;;;;;18.52;3.53;;;;;;;;;;5086579;28;20024;-62
2021/12/05 13:55:41;;;;;;;15.40;3.40;;;;;;;;;;5076963;28;20403;-62
2021/12/05 13:58:26;;;;;;;19.48;2.67;;;;;;;;;;5087862;28;20430;-62
2021/12/05 14:01:00;;;;;;;17.38;2.92;;;;;;;;;;5089200;28;20048;-62
2021/12/05 14:03:45;;;;;;;19.05;4.78;;;;;;;;;;5086118;28;20020;-62
2021/12/05 14:06:28;;;;;;;27.85;6.00;;;;;;;;;;5084984;28;20016;-62
2021/12/05 14:08:56;;;;;;;24.80;6.82;;;;;;;;;;5086597;28;20043;-62
2021/12/05 14:11:26;;;;;;;31.25;6.57;;;;;;;;;;5088829;28;20016;-62
2021/12/05 14:13:53;;;;;;;21.17;5.90;;;;;;;;;;5088792;28;20070;-63
2021/12/05 14:16:20;;;;;;;27.98;6.78;;;;;;;;;;5086876;28;21564;-62
2021/12/05 14:18:46;;;;;;;27.73;7.57;;;;;;;;;;5086283;28;20039;-62
2021/12/05 14:21:17;;;;;;;39.33;11.82;;;;;;;;;;5091309;28;20021;-62
2021/12/05 14:23:54;;;;;;;24.05;6.30;;;;;;;;;;5092565;28;20663;-62
2021/12/05 14:26:25;;;;;;;42.80;6.70;;;;;;;;;;5092999;28;20032;-62
2021/12/05 14:28:55;;;;;;;25.27;4.10;;;;;;;;;;5092271;28;20379;-62
2021/12/05 14:31:25;;;;;;;22.42;7.15;;;;;;;;;;5092494;28;20020;-62
2021/12/05 14:33:52;;;;;;;18.88;4.53;;;;;;;;;;5092419;28;20035;-62
2021/12/05 14:36:20;;;;;;;33.85;7.35;;;;;;;;;;5093678;28;20055;-62
2021/12/05 14:38:47;;;;;;;19.42;4.15;;;;;;;;;;5095340;28;20411;-62
2021/12/05 14:41:13;;;;;;;19.45;4.93;;;;;;;;;;5091900;28;20036;-63
2021/12/05 14:43:39;;;;;;;19.50;4.15;;;;;;;;;;5096335;28;20036;-63
2021/12/05 14:46:05;;;;;;;18.30;3.65;;;;;;;;;;5090644;28;20110;-63
2021/12/05 14:48:31;;;;;;;21.25;3.05;;;;;;;;;;5091123;28;20028;-63
2021/12/05 14:51:00;;;;;;;14.60;2.65;;;;;;;;;;5090645;28;20037;-63
2021/12/05 14:53:28;;;;;;;15.40;3.25;;;;;;;;;;5092051;28;20172;-63
2021/12/05 14:55:58;;;;;;;15.60;2.65;;;;;;;;;;5091577;28;20082;-63
2021/12/05 14:58:27;;;;;;;13.77;2.58;;;;;;;;;;5092149;28;20055;-63
2021/12/05 15:00:56;;;;;;;18.77;4.32;;;;;;;;;;5093095;28;20107;-63
2021/12/05 15:03:24;;;;;;;22.90;3.67;;;;;;;;;;5096602;28;20032;-63
2021/12/05 15:05:57;;;;;;;29.25;3.35;;;;;;;;;;5074625;28;20353;-63
2021/12/05 15:08:24;;;;;;;22.00;4.97;;;;;;;;;;5074732;28;20031;-72
2021/12/05 15:10:59;;;;;;;28.42;5.47;;;;;;;;;;5094728;28;20421;-64
2021/12/05 15:13:25;;;;;;;26.00;3.22;;;;;;;;;;5091710;28;20032;-64
2021/12/05 15:15:51;;;;;;;15.80;3.42;;;;;;;;;;5093028;28;20020;-64
2021/12/05 15:18:19;;;;;;;21.75;4.07;;;;;;;;;;5092727;28;20035;-64
2021/12/05 15:20:46;;;;;;;22.35;5.90;;;;;;;;;;5084122;28;20058;-64
2021/12/05 15:23:14;;;;;;;27.45;7.68;;;;;;;;;;5088760;28;20119;-64
2021/12/05 15:25:40;;;;;;;34.65;11.52;;;;;;;;;;5090240;28;20074;-64
2021/12/05 15:28:08;;;;;;;37.03;10.48;;;;;;;;;;5082330;28;20086;-64
2021/12/05 15:30:37;;;;;;;26.77;7.63;;;;;;;;;;5080867;28;20082;-63
2021/12/05 15:33:05;;;;;;;27.77;7.38;;;;;;;;;;5086686;28;20372;-63
2021/12/05 15:35:31;;;;;;;32.63;10.48;;;;;;;;;;5086117;28;20044;-63
2021/12/05 15:38:08;;;;;;;24.83;6.22;;;;;;;;;;5083269;28;20051;-63
2021/12/05 15:40:35;;;;;;;27.90;7.60;;;;;;;;;;5083258;28;20399;-64
2021/12/05 15:43:06;;;;;;;30.52;8.23;;;;;;;;;;5085901;28;20400;-63
2021/12/05 15:45:33;;;;;;;24.90;7.45;;;;;;;;;;5090751;28;20060;-64
2021/12/05 15:48:01;;;;;;;39.22;10.07;;;;;;;;;;5083867;28;20048;-64
2021/12/05 15:50:30;;;;;;;56.45;15.48;;;;;;;;;;5086882;28;20024;-64
2021/12/05 15:53:11;;;;;;;38.85;10.15;;;;;;;;;;5084372;28;20369;-64
2021/12/05 15:55:38;;;;;;;26.15;7.05;;;;;;;;;;5082793;28;20024;-64
2021/12/05 15:58:08;;;;;;;46.50;11.05;;;;;;;;;;5079330;28;20020;-64
2021/12/05 16:01:00;;;;;;;61.08;21.73;;;;;;;;;;5083594;28;20036;-64
2021/12/05 16:03:27;;;;;;;36.55;12.95;;;;;;;;;;5081318;28;20048;-64
2021/12/05 16:05:58;;;;;;;19.42;4.60;;;;;;;;;;5088970;28;20021;-65
2021/12/05 16:08:28;;;;;;;24.35;5.07;;;;;;;;;;5084251;28;20024;-64
2021/12/05 16:10:57;;;;;;;17.90;4.13;;;;;;;;;;5076540;28;20403;-64
2021/12/05 16:13:36;;;;;;;16.98;4.05;;;;;;;;;;5080154;28;20049;-64
2021/12/05 16:16:08;;;;;;;18.55;3.58;;;;;;;;;;5091949;28;20082;-64
2021/12/05 16:18:36;;;;;;;18.27;3.23;;;;;;;;;;5079709;28;20036;-64
2021/12/05 16:21:06;;;;;;;20.50;3.40;;;;;;;;;;5086095;28;20034;-64
2021/12/05 16:23:36;;;;;;;22.13;3.80;;;;;;;;;;5088883;28;20495;-64
2021/12/05 16:26:09;;;;;;;20.50;3.35;;;;;;;;;;5095523;28;20027;-64
2021/12/05 16:28:35;;;;;;;26.27;3.42;;;;;;;;;;5088003;28;20035;-64
2021/12/05 16:31:21;;;;;;;25.17;4.18;;;;;;;;;;5091562;28;20035;-64
2021/12/05 16:33:59;;;;;;;26.20;5.55;;;;;;;;;;5086560;28;20035;-64
2021/12/05 16:36:31;;;;;;;26.65;8.95;;;;;;;;;;5085543;28;20040;-64
2021/12/05 16:39:04;;;;;;;26.45;7.13;;;;;;;;;;5086684;28;20029;-64
2021/12/05 16:41:30;;;;;;;;;;;;;;;;;;5082773;28;20073;-64
2021/12/05 16:44:15;;;;;;;19.88;3.78;;;;;;;;;;5088281;28;19911;-62
2021/12/05 16:46:46;;;;;;;14.07;4.07;;;;;;;;;;5087565;28;20404;-63
2021/12/05 16:49:14;;;;;;;17.58;3.95;;;;;;;;;;5086895;28;20059;-63
2021/12/05 16:51:51;;;;;;;19.15;3.40;;;;;;;;;;5072301;28;20024;-63
2021/12/05 16:54:42;;;;;;;26.85;4.22;;;;;;;;;;5086023;28;20024;-63
2021/12/05 16:57:17;;;;;;;26.25;6.22;;;;;;;;;;5086309;28;20082;-63
2021/12/05 16:59:47;;;;;;;11.48;4.95;;;;;;;;;;5088372;28;20066;-63
2021/12/05 17:02:15;;;;;;;20.98;5.22;;;;;;;;;;5088507;28;20032;-68
2021/12/05 17:04:44;;;;;;;49.53;15.68;;;;;;;;;;5088876;28;20034;-64
2021/12/05 17:07:17;;;;;;;48.03;13.13;;;;;;;;;;5088864;28;20023;-63
2021/12/05 17:09:43;;;;;;;;;;;;;;;;;;5088223;28;20032;-63
2021/12/05 17:12:26;;;;;;;37.72;11.15;;;;;;;;;;5090027;28;19915;-63
2021/12/05 17:15:09;;;;;;;32.20;9.50;;;;;;;;;;5085832;28;20089;-63
2021/12/05 17:17:35;;;;;;;38.13;10.63;;;;;;;;;;5082160;28;20047;-63
2021/12/05 17:20:24;;;;;;;50.85;12.57;;;;;;;;;;5080678;28;20028;-63
2021/12/05 17:22:59;;;;;;;36.60;10.13;;;;;;;;;;5073431;28;20047;-63
2021/12/05 17:25:36;;;;;;;17.17;4.05;;;;;;;;;;5081801;28;20033;-63
2021/12/05 17:28:04;;;;;;;18.08;3.42;;;;;;;;;;5085421;28;20034;-63
2021/12/05 17:30:30;;;;;;;51.53;13.65;;;;;;;;;;5090237;28;20016;-69
2021/12/05 17:32:56;;;;;;;27.17;7.63;;;;;;;;;;5086727;28;20024;-63
2021/12/05 17:35:25;;;;;;;17.63;4.07;;;;;;;;;;5085898;28;20034;-63
2021/12/05 17:37:51;;;;;;;65.22;17.60;;;;;;;;;;5089369;28;20108;-63
2021/12/05 17:40:17;;;;;;;17.80;3.10;;;;;;;;;;5082306;28;20043;-63
2021/12/05 17:42:44;;;;;;;26.58;5.80;;;;;;;;;;5084630;28;20024;-63
2021/12/05 17:45:11;;;;;;;33.72;7.85;;;;;;;;;;5087784;28;20039;-63
2021/12/05 17:47:38;;;;;;;50.03;13.15;;;;;;;;;;5090795;28;20024;-63
2021/12/05 17:50:06;;;;;;;38.83;8.80;;;;;;;;;;5078550;28;20388;-63
2021/12/05 17:52:32;;;;;;;59.38;17.48;;;;;;;;;;5085934;28;20016;-63
2021/12/05 17:57:43;;;;;;;44.08;10.13;;;;;;;;;;5091896;28;20524;-63
2021/12/05 18:00:34;;;;;;;20.45;4.63;;;;;;;;;;5088291;28;20114;-63
2021/12/05 18:03:00;;;;;;;22.27;4.25;;;;;;;;;;5084862;28;20539;-63
2021/12/05 18:05:28;;;;;;;16.75;3.38;;;;;;;;;;5084546;28;20069;-64
2021/12/05 18:07:56;;;;;;;22.02;3.40;;;;;;;;;;5086435;28;20086;-64
2021/12/05 18:10:25;;;;;;;26.92;3.95;;;;;;;;;;5086207;28;20017;-63
2021/12/05 18:12:53;;;;;;;19.13;3.45;;;;;;;;;;5085596;28;20081;-63
2021/12/05 18:15:26;;;;;;;22.27;4.35;;;;;;;;;;5084980;28;20143;-63
2021/12/05 18:17:53;;;;;;;13.77;2.97;;;;;;;;;;5087635;28;20054;-63
2021/12/05 18:20:25;;;;;;;26.67;3.80;;;;;;;;;;5076772;28;20531;-63
2021/12/05 18:22:52;;;;;;;21.35;3.80;;;;;;;;;;5091678;28;20031;-64
2021/12/05 18:25:18;;;;;;;22.88;4.68;;;;;;;;;;5086118;28;20123;-63
2021/12/05 18:27:44;;;;;;;16.05;2.75;;;;;;;;;;5089306;28;20486;-63
2021/12/05 18:30:12;;;;;;;15.88;4.13;;;;;;;;;;5080664;28;20121;-63
2021/12/05 18:32:38;;;;;;;19.73;3.70;;;;;;;;;;5091338;28;21499;-63
2021/12/05 18:35:05;;;;;;;13.88;3.38;;;;;;;;;;5091899;28;20032;-63
2021/12/05 18:37:32;;;;;;;14.93;2.67;;;;;;;;;;5075973;28;20093;-63
2021/12/05 18:39:58;;;;;;;22.58;3.13;;;;;;;;;;5092365;28;20433;-67
2021/12/05 18:42:25;;;;;;;14.80;3.28;;;;;;;;;;5088779;28;21684;-71
2021/12/05 18:44:57;;;;;;;21.92;3.20;;;;;;;;;;5088843;28;20081;-66
2021/12/05 18:47:23;;;;;;;15.68;2.90;;;;;;;;;;5090410;28;20016;-74
2021/12/05 18:49:50;;;;;;;19.45;4.82;;;;;;;;;;5081967;28;20028;-64
2021/12/05 18:52:17;;;;;;;19.55;3.47;;;;;;;;;;5088960;28;20115;-64
2021/12/05 18:54:45;;;;;;;26.20;3.25;;;;;;;;;;5083833;28;20067;-64
2021/12/05 18:57:14;;;;;;;20.90;3.45;;;;;;;;;;5085572;28;20085;-64
2021/12/05 18:59:47;;;;;;;23.60;3.65;;;;;;;;;;5086260;28;20373;-64
2021/12/05 19:05:03;;;;;;;16.02;2.97;;;;;;;;;;5086050;28;20036;-64
2021/12/05 19:07:41;;;;;;;13.27;3.45;;;;;;;;;;5082823;28;20029;-64
2021/12/05 19:12:52;;;;;;;18.73;4.28;;;;;;;;;;5083826;28;20393;-64
2021/12/05 19:15:18;;;;;;;17.25;3.20;;;;;;;;;;5079870;28;20322;-64
2021/12/05 19:17:44;;;;;;;20.70;3.72;;;;;;;;;;5088133;28;20748;-64
2021/12/05 19:20:13;;;;;;;13.82;2.63;;;;;;;;;;5084588;28;20024;-64
2021/12/05 19:22:39;;;;;;;14.40;2.78;;;;;;;;;;5088666;28;20035;-64
2021/12/05 19:25:10;;;;;;;23.23;3.08;;;;;;;;;;5082862;28;20028;-64
2021/12/05 19:27:36;;;;;;;20.33;3.47;;;;;;;;;;5090754;28;20487;-64
2021/12/05 19:30:03;;;;;;;19.20;3.13;;;;;;;;;;5082392;28;20066;-64
2021/12/05 19:32:30;;;;;;;13.68;3.28;;;;;;;;;;5089044;28;20104;-65
2021/12/05 19:34:56;;;;;;;16.73;2.60;;;;;;;;;;5082928;28;20040;-64
2021/12/05 19:37:23;;;;;;;11.18;2.55;;;;;;;;;;5090087;28;20090;-64
2021/12/05 19:39:49;;;;;;;15.65;3.47;;;;;;;;;;5086944;28;20082;-64
2021/12/05 19:42:20;;;;;;;14.68;3.35;;;;;;;;;;5084817;28;20455;-64
2021/12/05 19:44:49;;;;;;;12.45;3.20;;;;;;;;;;5093366;28;20075;-64
2021/12/05 19:47:16;;;;;;;16.77;3.08;;;;;;;;;;5082380;28;20036;-64
2021/12/05 19:49:42;;;;;;;17.52;3.63;;;;;;;;;;5081196;28;20058;-64
2021/12/05 19:52:08;;;;;;;23.30;4.43;;;;;;;;;;5092069;28;20107;-64
2021/12/05 19:54:34;;;;;;;15.90;3.10;;;;;;;;;;5098043;28;20114;-64
2021/12/05 19:57:02;;;;;;;17.45;2.85;;;;;;;;;;5091962;28;20035;-64
2021/12/05 19:59:29;;;;;;;10.57;2.53;;;;;;;;;;5089429;28;20522;-64
2021/12/05 20:01:55;;;;;;;18.42;3.22;;;;;;;;;;5091597;28;20028;-64
2021/12/05 20:04:21;;;;;;;16.50;3.28;;;;;;;;;;5095090;28;20764;-64
2021/12/05 20:06:49;;;;;;;16.13;3.60;;;;;;;;;;5090153;28;20092;-64
2021/12/05 20:09:15;;;;;;;13.50;2.47;;;;;;;;;;5087505;28;20032;-64
2021/12/05 20:11:42;;;;;;;16.08;2.55;;;;;;;;;;5087304;28;20056;-64
2021/12/05 20:14:09;;;;;;;15.27;2.45;;;;;;;;;;5094345;28;20030;-64
2021/12/05 20:16:35;;;;;;;16.02;2.65;;;;;;;;;;5089657;28;20070;-64
2021/12/05 20:19:03;;;;;;;18.00;3.55;;;;;;;;;;5089819;28;20046;-64
2021/12/05 20:21:30;;;;;;;13.73;3.15;;;;;;;;;;5085575;28;20534;-64